Time;durP1;ratioP1;P1;durP2;ratioP2;P2;SDS_P1;SDS_P2;PMS_P1;PMS_P2;Temp;Humidity;BMP_temperature;BMP_pressure;BME280_temperature;BME280_humidity;BME280_pressure;Samples;Min_cycle;Max_cycle;Signal;HPM_P1;HPM_P2
2021/06/28 00:00:31;;;;;;;17.57;14.43;;;;;;;16.15;91.38;101072.59;5095757;28;20662;-69
2021/06/28 00:02:57;;;;;;;16.00;13.70;;;;;;;16.19;91.57;101071.41;5095866;28;20220;-69
2021/06/28 00:05:23;;;;;;;16.87;14.50;;;;;;;16.09;91.46;101070.34;5114439;28;20181;-69
2021/06/28 00:07:49;;;;;;;17.53;13.87;;;;;;;16.03;91.84;101066.28;5113193;28;20550;-69
2021/06/28 00:10:25;;;;;;;20.60;15.73;;;;;;;16.25;92.17;101062.88;5114025;28;20630;-69
2021/06/28 00:12:52;;;;;;;19.07;14.83;;;;;;;16.44;90.77;101059.72;5095485;28;20204;-69
2021/06/28 00:15:24;;;;;;;20.03;14.57;;;;;;;16.56;90.33;101065.03;5114202;28;20170;-69
2021/06/28 00:17:50;;;;;;;14.30;12.33;;;;;;;16.32;89.09;101065.97;5096087;28;20591;-69
2021/06/28 00:20:16;;;;;;;14.57;12.17;;;;;;;16.08;89.71;101074.88;5078513;28;20196;-69
2021/06/28 00:22:42;;;;;;;13.90;11.50;;;;;;;15.91;90.73;101068.00;5114049;28;20193;-70
2021/06/28 00:25:09;;;;;;;16.07;13.33;;;;;;;15.67;92.95;101064.38;5113814;28;20539;-69
2021/06/28 00:27:36;;;;;;;14.57;12.73;;;;;;;15.63;93.47;101071.81;5113901;28;20188;-69
2021/06/28 00:30:05;;;;;;;17.10;14.07;;;;;;;15.67;93.77;101075.13;5113796;28;20169;-69
2021/06/28 00:32:30;;;;;;;18.53;15.37;;;;;;;15.70;94.09;101071.38;5113377;28;20620;-69
2021/06/28 00:34:56;;;;;;;19.13;14.20;;;;;;;15.72;94.25;101067.59;5095579;28;20166;-69
2021/06/28 00:37:21;;;;;;;19.80;14.70;;;;;;;15.69;93.05;101077.72;5114276;28;20180;-70
2021/06/28 00:39:46;;;;;;;16.40;13.60;;;;;;;15.61;93.21;101070.19;5113756;28;20169;-69
2021/06/28 00:42:12;;;;;;;17.63;13.77;;;;;;;15.59;93.78;101074.78;5113545;28;20219;-69
2021/06/28 00:44:37;;;;;;;16.10;13.97;;;;;;;15.57;94.04;101069.47;5113751;28;20511;-70
2021/06/28 00:47:02;;;;;;;19.43;15.37;;;;;;;15.59;94.51;101066.72;5113775;28;20172;-69
2021/06/28 00:49:28;;;;;;;23.03;15.97;;;;;;;15.55;94.81;101067.88;5095406;28;20173;-69
2021/06/28 00:51:56;;;;;;;21.00;15.03;;;;;;;15.49;95.07;101069.16;5113544;28;20692;-69
2021/06/28 00:54:21;;;;;;;17.73;13.33;;;;;;;15.43;94.48;101076.81;5113531;28;20491;-69
2021/06/28 00:56:46;;;;;;;16.03;13.03;;;;;;;15.39;94.43;101068.09;5095672;28;20170;-69
2021/06/28 00:59:14;;;;;;;18.23;13.67;;;;;;;15.49;94.24;101062.94;5113989;28;20176;-69
2021/06/28 01:01:40;;;;;;;17.10;12.43;;;;;;;15.77;91.96;101059.19;5094958;28;20691;-70
2021/06/28 01:04:05;;;;;;;19.53;14.40;;;;;;;15.50;94.01;101056.56;5113587;28;20169;-69
2021/06/28 01:06:30;;;;;;;17.10;13.90;;;;;;;15.58;93.72;101055.09;5095245;28;20180;-69
2021/06/28 01:08:55;;;;;;;19.70;15.67;;;;;;;15.47;94.67;101057.66;5095288;28;20165;-70
2021/06/28 01:11:21;;;;;;;17.80;13.50;;;;;;;15.35;93.98;101061.22;5113121;28;20653;-69
2021/06/28 01:13:47;;;;;;;21.53;14.97;;;;;;;15.30;94.79;101066.91;5094985;28;20204;-69
2021/06/28 01:16:12;;;;;;;18.10;14.63;;;;;;;15.40;95.71;101066.25;5095045;28;20173;-69
2021/06/28 01:18:38;;;;;;;16.83;14.07;;;;;;;15.45;95.11;101062.28;5095665;28;20170;-69
2021/06/28 01:21:05;;;;;;;18.37;14.77;;;;;;;15.46;94.72;101065.84;5117159;28;20201;-69
2021/06/28 01:23:32;;;;;;;21.27;14.87;;;;;;;15.47;94.60;101067.56;5081855;28;20190;-69
2021/06/28 01:26:01;;;;;;;22.97;15.87;;;;;;;15.52;94.81;101063.56;5117328;28;20162;-69
2021/06/28 01:28:26;;;;;;;20.47;16.10;;;;;;;15.60;94.77;101068.44;5099149;28;20169;-69
2021/06/28 01:30:52;;;;;;;20.70;15.93;;;;;;;15.63;94.47;101068.25;5099420;28;20188;-69
2021/06/28 01:33:18;;;;;;;23.13;16.83;;;;;;;15.70;94.54;101063.31;5117441;28;20188;-69
2021/06/28 01:35:44;;;;;;;21.33;17.60;;;;;;;15.76;94.87;101062.88;5117017;28;20264;-69
2021/06/28 01:38:09;;;;;;;24.00;16.37;;;;;;;15.82;94.46;101070.50;5117138;28;20601;-68
2021/06/28 01:40:38;;;;;;;21.33;15.90;;;;;;;15.88;93.61;101061.97;5098622;28;20262;-68
2021/06/28 01:43:04;;;;;;;21.10;16.23;;;;;;;15.82;94.14;101049.81;5098559;28;20193;-68
2021/06/28 01:45:29;;;;;;;21.03;16.80;;;;;;;15.79;93.97;101058.13;5116885;28;20242;-69
2021/06/28 01:47:57;;;;;;;16.83;12.10;;;;;;;15.74;92.06;101057.59;5117432;28;20278;-69
2021/06/28 01:50:24;;;;;;;18.03;14.17;;;;;;;15.77;92.25;101064.59;5117272;28;20244;-69
2021/06/28 01:52:49;;;;;;;15.33;12.90;;;;;;;15.71;91.64;101059.63;5098617;28;20196;-68
2021/06/28 01:55:16;;;;;;;13.00;10.53;;;;;;;15.59;91.39;101062.19;5117072;28;20256;-68
2021/06/28 01:57:43;;;;;;;17.47;13.70;;;;;;;15.54;92.23;101058.09;5117059;28;20589;-68
2021/06/28 02:00:09;;;;;;;15.23;11.83;;;;;;;15.47;92.18;101056.78;5117129;28;20193;-69
2021/06/28 02:02:34;;;;;;;15.23;12.23;;;;;;;15.40;92.05;101068.94;5116631;28;20745;-68
2021/06/28 02:04:59;;;;;;;16.03;13.20;;;;;;;15.32;93.05;101064.97;5116665;28;20630;-68
2021/06/28 02:07:25;;;;;;;20.70;13.50;;;;;;;15.27;93.44;101071.63;5116478;28;20226;-68
2021/06/28 02:09:51;;;;;;;21.70;16.87;;;;;;;15.18;95.12;101069.56;5116271;28;20185;-69
2021/06/28 02:12:16;;;;;;;18.10;14.70;;;;;;;15.04;95.04;101067.81;5080941;28;20201;-69
2021/06/28 02:14:41;;;;;;;17.43;13.23;;;;;;;14.95;94.42;101068.44;5116630;28;20530;-69
2021/06/28 02:17:07;;;;;;;14.27;11.70;;;;;;;14.89;94.17;101075.09;5116529;28;20661;-69
2021/06/28 02:19:32;;;;;;;14.63;10.83;;;;;;;14.87;94.17;101073.47;5116187;28;20174;-70
2021/06/28 02:21:58;;;;;;;15.00;11.87;;;;;;;14.87;94.35;101065.41;5080720;28;20254;-69
2021/06/28 02:24:24;;;;;;;17.30;13.03;;;;;;;14.87;94.18;101060.03;5115946;28;20537;-69
2021/06/28 02:26:49;;;;;;;18.23;13.97;;;;;;;14.82;94.08;101068.38;5115869;28;20530;-70
2021/06/28 02:29:15;;;;;;;14.87;12.13;;;;;;;14.76;94.19;101063.44;5116134;28;20300;-69
2021/06/28 02:31:40;;;;;;;17.70;13.47;;;;;;;14.85;94.76;101059.25;5115084;28;20174;-68
2021/06/28 02:34:06;;;;;;;14.57;12.63;;;;;;;14.89;94.77;101055.44;5115958;28;20180;-67
2021/06/28 02:36:31;;;;;;;20.17;15.23;;;;;;;14.92;95.89;101064.13;5097879;28;20656;-69
2021/06/28 02:38:57;;;;;;;22.00;14.63;;;;;;;14.96;96.38;101056.72;5097700;28;20174;-68
2021/06/28 02:41:23;;;;;;;19.87;14.53;;;;;;;14.99;95.67;101054.69;5097974;28;20201;-68
2021/06/28 02:43:49;;;;;;;20.10;15.40;;;;;;;15.03;95.70;101060.72;5115747;28;20216;-68
2021/06/28 02:46:15;;;;;;;22.00;15.07;;;;;;;15.05;95.46;101044.47;5115857;28;20273;-69
2021/06/28 02:48:41;;;;;;;21.73;17.37;;;;;;;15.08;95.97;101053.19;5116155;28;20596;-68
2021/06/28 02:51:10;;;;;;;21.80;15.70;;;;;;;15.07;95.79;101042.56;5097146;28;20192;-68
2021/06/28 02:53:36;;;;;;;18.70;13.87;;;;;;;15.00;93.83;101034.91;5115375;28;20201;-68
2021/06/28 02:56:14;;;;;;;14.67;11.80;;;;;;;14.91;93.14;101029.31;5097109;28;20216;-68
2021/06/28 02:58:59;;;;;;;15.10;11.43;;;;;;;14.75;92.26;101029.47;5098833;28;20241;-68
2021/06/28 03:01:27;;;;;;;14.47;11.60;;;;;;;14.62;92.47;101026.75;5096165;28;20206;-68
2021/06/28 03:03:52;;;;;;;15.30;11.93;;;;;;;14.65;92.85;101031.91;5097024;28;20194;-68
2021/06/28 03:06:19;;;;;;;17.93;13.03;;;;;;;14.69;93.54;101022.69;5115107;28;20169;-68
2021/06/28 03:08:45;;;;;;;14.23;11.67;;;;;;;14.71;92.95;101025.25;5115297;28;20196;-68
2021/06/28 03:11:12;;;;;;;15.23;11.27;;;;;;;14.65;91.65;101037.28;5115292;28;20533;-68
2021/06/28 03:13:38;;;;;;;15.20;10.50;;;;;;;14.63;91.77;101033.84;5096559;28;20201;-68
2021/06/28 03:16:04;;;;;;;15.87;11.20;;;;;;;14.63;91.55;101031.16;5114864;28;20173;-69
2021/06/28 03:18:29;;;;;;;12.77;10.47;;;;;;;14.64;91.71;101030.19;5115072;28;20200;-68
2021/06/28 03:20:55;;;;;;;10.77;9.37;;;;;;;14.67;91.67;101029.97;5096864;28;20189;-68
2021/06/28 03:23:20;;;;;;;12.63;10.10;;;;;;;14.62;90.97;101031.25;5114837;28;20193;-67
2021/06/28 03:25:46;;;;;;;10.63;9.53;;;;;;;14.57;91.09;101028.88;5114641;28;20637;-69
2021/06/28 03:28:12;;;;;;;13.63;10.23;;;;;;;14.56;91.03;101027.16;5096349;28;20177;-68
2021/06/28 03:30:37;;;;;;;13.23;10.27;;;;;;;14.63;91.08;101032.97;5114899;28;20226;-68
2021/06/28 03:33:03;;;;;;;15.30;11.67;;;;;;;14.70;91.47;101035.16;5114662;28;20262;-68
2021/06/28 03:35:28;;;;;;;15.90;11.77;;;;;;;14.81;91.79;101030.88;5096452;28;20645;-68
2021/06/28 03:37:53;;;;;;;17.10;13.17;;;;;;;14.93;92.24;101033.63;5096451;28;20212;-69
2021/06/28 03:40:18;;;;;;;16.40;13.00;;;;;;;15.04;92.93;101026.63;5096158;28;20197;-68
2021/06/28 03:42:44;;;;;;;21.30;15.67;;;;;;;15.14;93.72;101030.41;5114452;28;20238;-68
2021/06/28 03:45:12;;;;;;;20.17;15.20;;;;;;;15.21;93.47;101035.25;5114566;28;20173;-68
2021/06/28 03:47:38;;;;;;;17.00;13.63;;;;;;;15.24;92.43;101028.84;5114273;28;20182;-68
2021/06/28 03:50:05;;;;;;;17.50;12.87;;;;;;;15.18;90.85;101034.59;5114342;28;20192;-68
2021/06/28 03:52:30;;;;;;;12.13;7.67;;;;;;;15.14;86.77;101031.25;5114228;28;20661;-68
2021/06/28 03:54:55;;;;;;;10.50;8.43;;;;;;;14.88;88.72;101041.13;5114252;28;20180;-68
2021/06/28 03:57:21;;;;;;;7.43;6.47;;;;;;;14.71;88.92;101036.00;5114338;28;20177;-68
2021/06/28 03:59:46;;;;;;;12.10;6.10;;;;;;;14.68;89.07;101042.44;5095829;28;20206;-69
2021/06/28 04:02:11;;;;;;;6.40;4.70;;;;;;;14.69;87.71;101041.50;5114156;28;20649;-68
2021/06/28 04:04:37;;;;;;;7.43;6.10;;;;;;;14.83;87.64;101042.38;5114273;28;20278;-67
2021/06/28 04:07:02;;;;;;;5.27;4.30;;;;;;;14.90;85.33;101041.03;5113900;28;20185;-68
2021/06/28 04:09:27;;;;;;;4.50;4.07;;;;;;;15.00;84.37;101039.44;5113790;28;20630;-68
2021/06/28 04:11:52;;;;;;;5.20;4.50;;;;;;;15.13;83.85;101044.81;5095412;28;20181;-69
2021/06/28 04:14:18;;;;;;;8.37;5.67;;;;;;;15.13;84.39;101048.38;5101895;22;20287;-71
2021/06/28 04:16:43;;;;;;;9.70;7.90;;;;;;;15.23;85.55;101046.75;5093280;28;20219;-69
2021/06/28 04:19:08;;;;;;;11.13;8.63;;;;;;;15.39;86.01;101043.03;5093222;28;20181;-71
2021/06/28 04:21:34;;;;;;;10.27;7.53;;;;;;;15.59;84.50;101045.19;5093171;28;20682;-69
2021/06/28 04:24:04;;;;;;;8.40;6.63;;;;;;;15.74;84.44;101046.81;5075784;28;20681;-70
2021/06/28 04:26:31;;;;;;;10.97;8.33;;;;;;;15.85;84.17;101046.91;5075319;28;20170;-70
2021/06/28 04:28:56;;;;;;;12.87;7.07;;;;;;;15.81;85.55;101040.03;5075147;28;20258;-70
2021/06/28 04:31:21;;;;;;;8.80;6.27;;;;;;;16.00;84.51;101052.19;5075461;28;20170;-70
2021/06/28 04:33:47;;;;;;;12.53;6.93;;;;;;;16.10;85.26;101050.53;5093237;28;20193;-70
2021/06/28 04:36:12;;;;;;;14.30;9.87;;;;;;;16.15;85.37;101051.06;5075335;28;20214;-70
2021/06/28 04:38:37;;;;;;;30.00;10.10;;;;;;;16.06;85.32;101060.69;5058272;28;20174;-70
2021/06/28 04:41:03;;;;;;;8.83;6.40;;;;;;;16.26;83.59;101057.38;5075403;28;20198;-70
2021/06/28 04:43:28;;;;;;;5.07;4.63;;;;;;;16.38;81.99;101054.78;5093327;28;20542;-69
2021/06/28 04:45:53;;;;;;;8.17;5.97;;;;;;;16.52;82.19;101051.91;5093047;28;20181;-71
2021/06/28 04:48:19;;;;;;;9.00;6.30;;;;;;;16.66;82.32;101053.59;5075143;28;20170;-72
2021/06/28 04:50:45;;;;;;;11.20;7.03;;;;;;;16.86;81.97;101058.38;5074907;28;20170;-72
2021/06/28 04:53:10;;;;;;;9.10;6.00;;;;;;;17.01;80.63;101054.50;5074736;28;20791;-72
2021/06/28 04:55:36;;;;;;;11.80;6.37;;;;;;;17.12;80.01;101057.25;5074820;28;20186;-72
2021/06/28 04:58:01;;;;;;;5.63;4.93;;;;;;;17.14;78.67;101055.28;5075107;28;20239;-72
2021/06/28 05:00:26;;;;;;;6.87;4.87;;;;;;;17.29;78.66;101060.47;5058045;28;20202;-72
2021/06/28 05:02:52;;;;;;;6.67;4.40;;;;;;;17.41;78.20;101054.97;5058064;28;20335;-72
2021/06/28 05:05:18;;;;;;;4.90;4.40;;;;;;;17.43;77.94;101057.56;5074782;28;20178;-74
2021/06/28 05:07:44;;;;;;;7.80;6.53;;;;;;;17.42;77.37;101061.22;5075017;28;20178;-73
2021/06/28 05:10:10;;;;;;;6.53;5.07;;;;;;;17.47;78.03;101067.16;5074797;28;20583;-73
2021/06/28 05:12:36;;;;;;;8.80;6.40;;;;;;;17.50;77.73;101064.22;5074305;28;20201;-73
2021/06/28 05:15:03;;;;;;;13.63;9.20;;;;;;;17.65;78.94;101060.31;5092627;28;20162;-71
2021/06/28 05:17:29;;;;;;;19.33;11.63;;;;;;;17.79;79.88;101062.78;5092835;28;20265;-72
2021/06/28 05:19:57;;;;;;;15.70;9.90;;;;;;;17.86;79.80;101060.50;5074562;28;20181;-71
2021/06/28 05:22:22;;;;;;;14.47;10.10;;;;;;;17.88;80.25;101054.97;5074627;28;20228;-70
2021/06/28 05:24:48;;;;;;;13.73;10.27;;;;;;;18.03;79.56;101057.28;5057967;28;20174;-72
2021/06/28 05:27:13;;;;;;;16.53;13.00;;;;;;;17.91;80.62;101054.72;5074266;28;20205;-72
2021/06/28 05:29:38;;;;;;;19.97;11.67;;;;;;;18.08;80.01;101046.97;5074451;28;20218;-72
2021/06/28 05:32:04;;;;;;;14.20;10.47;;;;;;;18.24;79.64;101051.13;5074431;28;20210;-72
2021/06/28 05:34:29;;;;;;;17.73;11.67;;;;;;;18.21;80.54;101046.84;5074687;28;20255;-72
2021/06/28 05:36:55;;;;;;;18.23;13.10;;;;;;;18.21;81.40;101045.97;5057587;28;20688;-71
2021/06/28 05:39:20;;;;;;;23.47;12.83;;;;;;;18.38;80.58;101043.59;5074617;28;20240;-70
2021/06/28 05:41:45;;;;;;;20.43;13.80;;;;;;;18.56;79.60;101045.75;5058054;28;20573;-71
2021/06/28 05:44:11;;;;;;;23.47;15.83;;;;;;;18.66;79.67;101047.63;5092391;28;20708;-71
2021/06/28 05:46:36;;;;;;;24.47;16.80;;;;;;;18.55;79.55;101050.31;5074482;28;20174;-72
2021/06/28 05:49:02;;;;;;;20.20;14.23;;;;;;;18.86;78.07;101042.38;5092558;28;20177;-72
2021/06/28 05:51:27;;;;;;;20.67;15.30;;;;;;;18.91;77.69;101046.41;5093014;28;20231;-72
2021/06/28 05:53:53;;;;;;;19.17;14.10;;;;;;;18.93;77.90;101047.13;5074331;28;20273;-71
2021/06/28 05:56:18;;;;;;;20.70;15.10;;;;;;;18.98;77.92;101047.63;5074917;28;20483;-71
2021/06/28 05:58:43;;;;;;;19.27;14.20;;;;;;;19.09;76.94;101054.81;5074366;28;20214;-71
2021/06/28 06:01:09;;;;;;;21.07;13.03;;;;;;;19.23;76.74;101051.78;5092436;28;20724;-71
2021/06/28 06:03:35;;;;;;;23.40;14.13;;;;;;;19.09;77.10;101052.13;5074347;28;20194;-71
2021/06/28 06:06:01;;;;;;;16.83;14.43;;;;;;;19.00;77.04;101048.34;5076146;28;20177;-72
2021/06/28 06:08:26;;;;;;;18.63;13.90;;;;;;;19.11;77.23;101049.28;5096640;28;20235;-71
2021/06/28 06:10:53;;;;;;;20.13;13.20;;;;;;;19.11;76.31;101052.00;5096122;28;20223;-71
2021/06/28 06:13:18;;;;;;;12.63;8.67;;;;;;;19.39;75.42;101048.63;5077797;28;20202;-71
2021/06/28 06:15:44;;;;;;;16.30;11.40;;;;;;;19.58;75.14;101050.63;5061165;28;20170;-67
2021/06/28 06:18:09;;;;;;;34.97;13.07;;;;;;;19.58;75.00;101056.91;5095998;28;20233;-69
2021/06/28 06:20:34;;;;;;;24.07;13.20;;;;;;;19.84;73.10;101056.47;5095773;28;20206;-67
2021/06/28 06:23:00;;;;;;;18.43;11.77;;;;;;;19.88;72.16;101055.22;5078090;28;20202;-67
2021/06/28 06:25:25;;;;;;;24.17;12.10;;;;;;;20.11;71.11;101043.19;5077868;28;20370;-67
2021/06/28 06:27:50;;;;;;;19.73;10.27;;;;;;;20.56;69.96;101054.47;5095661;28;20178;-67
2021/06/28 06:30:16;;;;;;;17.43;10.30;;;;;;;21.03;68.45;101053.78;5095651;28;20183;-67
2021/06/28 06:32:41;;;;;;;18.30;11.57;;;;;;;20.86;67.99;101058.06;5077081;28;20201;-67
2021/06/28 06:35:07;;;;;;;24.17;10.27;;;;;;;20.97;67.80;101063.34;5095573;28;20177;-67
2021/06/28 06:37:32;;;;;;;11.67;9.20;;;;;;;21.33;66.55;101063.66;5077386;28;20174;-67
2021/06/28 06:39:58;;;;;;;27.50;11.30;;;;;;;21.16;67.29;101057.03;5077085;28;20227;-68
2021/06/28 06:42:23;;;;;;;14.77;10.17;;;;;;;21.23;66.46;101055.53;5095256;28;20181;-68
2021/06/28 06:44:49;;;;;;;17.23;8.37;;;;;;;21.41;64.95;101052.91;5095247;28;20613;-67
2021/06/28 06:47:14;;;;;;;15.40;8.33;;;;;;;21.74;64.73;101043.41;5095502;28;20257;-66
2021/06/28 06:49:39;;;;;;;12.23;7.97;;;;;;;21.93;61.70;101056.94;5077227;28;20174;-68
2021/06/28 06:52:05;;;;;;;14.67;8.63;;;;;;;21.85;62.81;101054.06;5095889;28;20539;-67
2021/06/28 06:54:30;;;;;;;7.67;6.07;;;;;;;22.19;60.27;101056.25;5095117;28;20198;-67
2021/06/28 06:56:55;;;;;;;10.83;7.50;;;;;;;22.11;59.08;101052.44;5096212;28;20180;-70
2021/06/28 06:59:20;;;;;;;9.07;6.10;;;;;;;22.29;58.63;101051.63;5107955;28;20235;-71
2021/06/28 07:01:46;;;;;;;6.30;4.90;;;;;;;22.61;57.24;101056.56;5112770;28;20206;-71
2021/06/28 07:04:14;;;;;;;7.03;5.20;;;;;;;22.73;57.49;101056.22;5085135;28;20709;-71
2021/06/28 07:06:39;;;;;;;7.57;5.60;;;;;;;22.78;57.70;101061.19;5095615;28;20254;-71
2021/06/28 07:09:04;;;;;;;10.13;5.30;;;;;;;22.74;57.21;101057.94;5094986;28;20174;-71
2021/06/28 07:11:30;;;;;;;5.60;4.63;;;;;;;22.75;57.06;101058.78;5095315;28;20685;-70
2021/06/28 07:13:55;;;;;;;8.40;6.40;;;;;;;22.64;57.35;101057.13;5076657;28;20255;-70
2021/06/28 07:16:29;;;;;;;8.67;4.93;;;;;;;22.88;56.64;101063.88;5060020;28;20193;-70
2021/06/28 07:18:55;;;;;;;9.67;5.90;;;;;;;22.73;56.27;101064.38;5094580;28;20495;-70
2021/06/28 07:21:20;;;;;;;3.87;3.50;;;;;;;22.45;52.76;101062.69;5094555;28;20201;-70
2021/06/28 07:23:46;;;;;;;5.30;3.50;;;;;;;22.54;53.35;101064.50;5076715;28;20198;-74
2021/06/28 07:26:11;;;;;;;6.67;4.30;;;;;;;22.33;53.76;101059.34;5094558;28;20283;-70
2021/06/28 07:28:36;;;;;;;4.50;3.80;;;;;;;22.51;54.16;101070.25;5094605;28;20174;-70
2021/06/28 07:31:03;;;;;;;5.87;3.73;;;;;;;22.36;52.92;101064.47;5059759;28;20181;-70
2021/06/28 07:33:29;;;;;;;4.20;3.67;;;;;;;22.12;53.60;101067.72;5094178;28;20190;-71
2021/06/28 07:35:54;;;;;;;4.70;4.20;;;;;;;22.26;54.48;101058.22;5076908;28;20507;-72
2021/06/28 07:38:24;;;;;;;5.70;3.70;;;;;;;22.49;53.29;101066.81;5077113;28;20174;-70
2021/06/28 07:40:49;;;;;;;4.83;3.97;;;;;;;22.67;52.48;101061.41;5077070;28;20672;-70
2021/06/28 07:43:16;;;;;;;4.20;3.47;;;;;;;22.83;52.51;101067.06;5075900;28;20194;-70
2021/06/28 07:45:42;;;;;;;5.17;4.47;;;;;;;22.83;52.16;101066.19;5059263;28;20585;-70
2021/06/28 07:48:07;;;;;;;3.97;3.53;;;;;;;22.95;50.61;101068.53;5059152;28;20242;-72
2021/06/28 07:50:32;;;;;;;4.77;3.27;;;;;;;23.01;49.03;101064.31;5076176;28;20170;-70
2021/06/28 07:52:58;;;;;;;7.03;3.47;;;;;;;22.91;50.80;101067.13;5075774;28;20193;-70
2021/06/28 07:55:23;;;;;;;4.67;3.57;;;;;;;23.11;48.66;101070.56;5075713;28;20190;-71
2021/06/28 07:57:48;;;;;;;4.93;3.13;;;;;;;23.13;48.66;101060.38;5059022;28;20205;-71
2021/06/28 08:00:16;;;;;;;4.33;3.83;;;;;;;23.06;50.48;101064.75;5093737;28;20197;-71
2021/06/28 08:02:42;;;;;;;4.10;3.70;;;;;;;23.08;50.93;101057.28;5075583;28;20186;-69
2021/06/28 08:05:08;;;;;;;7.47;3.17;;;;;;;22.87;51.78;101046.69;5094034;28;20273;-72
2021/06/28 08:07:33;;;;;;;4.20;3.50;;;;;;;22.97;51.59;101052.91;5075598;28;20627;-71
2021/06/28 08:09:59;;;;;;;3.50;3.20;;;;;;;23.18;52.11;101062.63;5093656;28;20166;-70
2021/06/28 08:12:24;;;;;;;4.80;3.73;;;;;;;23.23;52.43;101057.56;5093424;28;20177;-70
2021/06/28 08:14:50;;;;;;;8.37;3.73;;;;;;;23.48;51.78;101061.34;5074848;28;20205;-71
2021/06/28 08:17:15;;;;;;;5.20;3.70;;;;;;;23.78;51.60;101055.41;5058552;28;20177;-71
2021/06/28 08:19:42;;;;;;;3.80;3.50;;;;;;;23.87;51.24;101053.63;5093783;28;20656;-71
2021/06/28 08:22:09;;;;;;;5.00;3.60;;;;;;;23.74;50.15;101053.19;5093344;28;20239;-71
2021/06/28 08:24:35;;;;;;;6.83;3.83;;;;;;;23.56;49.42;101055.97;5075317;28;20194;-71
2021/06/28 08:27:00;;;;;;;3.40;3.10;;;;;;;23.52;49.63;101054.56;5093275;28;20335;-69
2021/06/28 08:29:25;;;;;;;5.90;3.20;;;;;;;23.69;49.98;101051.78;5093965;28;20170;-71
2021/06/28 08:31:50;;;;;;;3.27;2.97;;;;;;;23.80;49.29;101050.69;5093501;28;20196;-70
2021/06/28 08:34:16;;;;;;;3.83;2.80;;;;;;;24.07;48.17;101052.34;5075104;28;20205;-70
2021/06/28 08:36:44;;;;;;;4.97;3.07;;;;;;;24.32;46.80;101053.34;5075064;28;20167;-71
2021/06/28 08:39:10;;;;;;;3.30;3.00;;;;;;;24.52;46.43;101051.16;5093203;28;20198;-71
2021/06/28 08:41:36;;;;;;;4.77;2.97;;;;;;;24.58;46.75;101056.00;5093592;28;20241;-71
2021/06/28 08:44:01;;;;;;;4.90;3.20;;;;;;;24.70;45.94;101053.78;5058287;28;20194;-71
2021/06/28 08:46:27;;;;;;;4.07;2.90;;;;;;;24.61;45.69;101053.78;5075084;28;20534;-71
2021/06/28 08:48:53;;;;;;;3.77;3.10;;;;;;;24.66;45.94;101052.41;5075548;28;20177;-71
2021/06/28 08:51:20;;;;;;;3.40;3.10;;;;;;;24.86;46.04;101054.66;5075941;28;20170;-71
2021/06/28 08:53:52;;;;;;;4.10;2.97;;;;;;;24.90;45.41;101055.16;5095110;28;20281;-70
2021/06/28 08:56:18;;;;;;;3.33;3.03;;;;;;;24.91;45.41;101055.03;5076766;28;20155;-71
2021/06/28 08:58:43;;;;;;;5.20;3.50;;;;;;;24.53;45.98;101045.59;5093610;28;20299;-71
2021/06/28 09:01:10;;;;;;;3.60;2.97;;;;;;;24.82;45.91;101041.53;5093372;28;20600;-72
2021/06/28 09:03:35;;;;;;;3.30;2.90;;;;;;;24.98;44.95;101036.13;5075640;28;20186;-70
2021/06/28 09:06:14;;;;;;;3.57;3.10;;;;;;;25.13;45.07;101039.88;5075137;28;20170;-70
2021/06/28 09:08:55;;;;;;;4.53;3.40;;;;;;;25.27;45.25;101038.31;5077198;28;20157;-71
2021/06/28 09:11:20;;;;;;;3.50;3.20;;;;;;;25.15;44.17;101046.03;5075420;28;20679;-72
2021/06/28 09:13:47;;;;;;;3.27;2.90;;;;;;;25.28;44.15;101040.06;5074954;28;20293;-71
2021/06/28 09:16:29;;;;;;;2.93;2.63;;;;;;;25.43;43.99;101042.94;5075972;28;20231;-71
2021/06/28 09:19:04;;;;;;;3.77;3.10;;;;;;;25.51;44.63;101037.47;5075886;28;20207;-71
2021/06/28 09:21:40;;;;;;;7.80;3.20;;;;;;;25.60;43.69;101041.03;5075403;28;20276;-71
2021/06/28 09:24:09;;;;;;;3.40;3.03;;;;;;;25.75;43.23;101042.91;5093681;28;20243;-71
2021/06/28 09:26:36;;;;;;;3.87;2.97;;;;;;;25.90;42.56;101042.19;5075647;28;20181;-71
2021/06/28 09:29:07;;;;;;;3.30;3.00;;;;;;;25.93;42.77;101041.84;5075175;28;20197;-70
2021/06/28 09:31:40;;;;;;;3.30;3.00;;;;;;;25.53;43.00;101036.25;5075307;28;20162;-72
2021/06/28 09:34:10;;;;;;;2.77;2.53;;;;;;;25.59;43.69;101044.78;5093084;28;20208;-71
2021/06/28 09:37:01;;;;;;;3.60;3.30;;;;;;;25.78;43.14;101038.97;5093220;28;20192;-71
2021/06/28 09:39:26;;;;;;;3.17;2.80;;;;;;;25.85;42.98;101043.56;5072878;28;20194;-71
2021/06/28 09:41:59;;;;;;;4.13;3.17;;;;;;;25.81;42.67;101041.38;5096541;28;20318;-71
2021/06/28 09:44:27;;;;;;;3.03;2.63;;;;;;;25.86;43.51;101031.59;5097094;28;20186;-71
2021/06/28 09:47:03;;;;;;;3.13;2.80;;;;;;;25.76;42.86;101036.41;5078573;28;20652;-71
2021/06/28 09:49:28;;;;;;;3.03;2.73;;;;;;;25.75;42.56;101034.72;5096615;28;20541;-71
2021/06/28 09:51:53;;;;;;;4.30;3.00;;;;;;;25.86;42.75;101033.47;5096721;28;20654;-71
2021/06/28 09:54:19;;;;;;;7.77;3.03;;;;;;;26.08;41.54;101029.16;5078016;28;20330;-70
2021/06/28 09:56:51;;;;;;;4.33;3.20;;;;;;;26.04;42.12;101039.59;5061443;28;20239;-70
2021/06/28 09:59:32;;;;;;;4.57;3.17;;;;;;;25.89;42.85;101032.28;5061539;28;20170;-70
2021/06/28 10:02:22;;;;;;;3.60;3.03;;;;;;;26.01;41.75;101033.59;5078392;28;20178;-70
2021/06/28 10:05:12;;;;;;;2.87;2.57;;;;;;;26.32;40.70;101037.22;5078258;28;20245;-71
2021/06/28 10:07:39;;;;;;;4.00;2.77;;;;;;;26.45;41.01;101032.06;5097051;28;20151;-70
2021/06/28 10:10:25;;;;;;;3.10;2.80;;;;;;;26.64;40.77;101032.63;5061043;28;20170;-71
2021/06/28 10:12:56;;;;;;;3.90;2.60;;;;;;;27.03;40.17;101030.66;5120176;22;20210;-71
2021/06/28 10:15:22;;;;;;;3.87;2.87;;;;;;;27.27;39.12;101024.16;5095948;28;20243;-71
2021/06/28 10:17:49;;;;;;;3.47;3.17;;;;;;;26.67;41.13;101022.19;5078224;28;20542;-70
2021/06/28 10:20:19;;;;;;;3.30;3.00;;;;;;;27.41;39.73;101020.56;5061398;28;20201;-70
2021/06/28 10:22:45;;;;;;;4.90;3.00;;;;;;;27.86;38.62;101031.59;5061230;28;20175;-72
2021/06/28 10:25:13;;;;;;;7.47;3.10;;;;;;;27.18;39.18;101027.16;5095832;28;20170;-70
2021/06/28 10:27:39;;;;;;;3.17;2.87;;;;;;;27.65;37.89;101035.97;5077661;28;20580;-70
2021/06/28 10:30:08;;;;;;;3.20;2.90;;;;;;;27.09;40.06;101021.72;5077757;28;20217;-71
2021/06/28 10:32:34;;;;;;;3.33;3.03;;;;;;;27.77;39.29;101024.53;5094181;28;20181;-69
2021/06/28 10:35:00;;;;;;;6.27;2.97;;;;;;;28.35;37.51;101025.56;5095487;28;20182;-69
2021/06/28 10:37:30;;;;;;;3.73;2.83;;;;;;;28.39;37.86;101030.47;5094656;28;20162;-72
2021/06/28 10:39:57;;;;;;;4.33;2.77;;;;;;;28.74;35.96;101022.41;5095657;28;20166;-69
2021/06/28 10:42:31;;;;;;;2.53;2.33;;;;;;;29.07;35.00;101036.53;5094913;28;20185;-71
2021/06/28 10:44:56;;;;;;;2.80;2.60;;;;;;;28.47;35.98;101026.75;5077328;28;20201;-68
2021/06/28 10:47:22;;;;;;;7.07;2.87;;;;;;;29.04;35.20;101029.53;5094176;28;20167;-71
2021/06/28 10:49:52;;;;;;;4.60;2.60;;;;;;;27.98;36.70;101013.66;5095320;28;20174;-71
2021/06/28 10:52:36;;;;;;;4.13;2.90;;;;;;;29.01;35.58;101023.56;5093294;28;20200;-71
2021/06/28 10:55:21;;;;;;;3.07;2.70;;;;;;;29.91;34.20;101020.91;5095267;28;20592;-71
2021/06/28 10:57:48;;;;;;;3.37;3.00;;;;;;;29.09;35.86;101013.28;5094899;28;20270;-70
2021/06/28 11:00:15;;;;;;;4.60;2.87;;;;;;;29.68;34.88;101014.81;5094490;28;20181;-72
2021/06/28 11:02:42;;;;;;;3.20;2.90;;;;;;;29.54;34.74;101009.25;5093723;28;20227;-70
2021/06/28 11:05:11;;;;;;;3.20;2.50;;;;;;;29.96;33.85;101010.13;5093646;28;20186;-70
2021/06/28 11:07:47;;;;;;;2.88;2.67;;;;;;;30.69;32.81;101008.56;5077028;28;20596;-71
2021/06/28 11:10:14;;;;;;;3.80;2.70;;;;;;;32.82;29.35;101012.69;5094842;28;20541;-71
2021/06/28 11:12:40;;;;;;;3.10;2.20;;;;;;;34.45;26.16;101008.53;5076630;28;20174;-70
2021/06/28 11:15:25;;;;;;;3.65;2.53;;;;;;;35.61;25.18;101006.31;5076647;28;20283;-71